Nearby METAR Reports

 

KGEU - Glendale, Arizona, USA
Distance from station: S 3mi, 4km
Updated: Thu, 23-Mar-2017 8:51am MST
Mostly cloudy
Mostly cloudy
 Wind from SE
Wind: SE 8 mph , 13 km/h
Temperature: 57°F , 14°C
Dew Point: 52°F , 11°C
Humidity: 82%
Barometer: 29.97 inHg , 1014.9 hPa
Clouds: Mostly cloudy
Visibility: 10 miles , 16 km
Cloud details: Few Clouds 3000 ft
Mostly cloudy 8000 ft
Mostly cloudy 20000 ft
2017/03/23 15:51 KGEU 231551Z 13007KT 10SM FEW030 BKN080 BKN200 14/11 A2997
KLUF - Luke Afb/Glendal, Arizona, USA
Distance from station: SW 5mi, 8km
Updated: Thu, 23-Mar-2017 8:58am MST
Few Clouds
Few Clouds
 Wind from SSW
Wind: SSW 8 mph , 13 km/h
Temperature: 59°F , 15°C
Dew Point: 48°F , 9°C
Humidity: 68%
Barometer: 29.94 inHg , 1013.9 hPa
Clouds: Few Clouds
Visibility: 10 miles , 16 km
Cloud details: Few Clouds 6000 ft
2017/03/23 15:58 KLUF 231558Z 20007KT 10SM FEW060 15/09 A2994 RMK AO2A DZB23E33 SLP134 P0000 T01450086 $
 
KGYR - Goodyear Municip, Arizona, USA
Distance from station: SSW 11mi, 18km
Updated: Thu, 23-Mar-2017 8:47am MST
Mostly cloudy
Mostly cloudy
 Wind from S
Wind: S 9 mph , 15 km/h
Temperature: 57°F , 14°C
Dew Point: 46°F , 8°C
Humidity: 67%
Barometer: 29.96 inHg , 1014.6 hPa
Clouds: Mostly cloudy
Visibility: 10 miles , 16 km
Cloud details: Few Clouds 2500 ft
Partly cloudy 8000 ft
Mostly cloudy 20000 ft
2017/03/23 15:47 KGYR 231547Z 18008KT 10SM FEW025 SCT080 BKN200 14/08 A2996
KDVT - Phoenix/Deer Vly, Arizona, USA
Distance from station: ENE 16mi, 26km
Updated: Thu, 23-Mar-2017 9:10am MST
Mostly cloudy
Mostly cloudy
 Wind from SSW
Wind: SSW 6 mph , 9 km/h
Temperature: 55°F , 13°C
Dew Point: 46°F , 8°C
Humidity: 72%
Barometer: 29.95 inHg , 1014.2 hPa
Clouds: Mostly cloudy
Visibility: 10 miles , 16 km
Cloud details: Mostly cloudy 2900 ft
2017/03/23 16:10 KDVT 231610Z 20005KT 10SM BKN029 13/08 A2995 RMK AO2 T01330083
 
KPHX - Phoenix/Sky Hrbr, Arizona, USA
Distance from station: ESE 19mi, 31km
Updated: Thu, 23-Mar-2017 8:51am MST
Mostly cloudy
Mostly cloudy
 Wind from SSE
Wind: SSE 10 mph , 17 km/h
Temperature: 57°F , 14°C
Dew Point: 46°F , 8°C
Humidity: 67%
Barometer: 29.95 inHg , 1014.2 hPa
Clouds: Mostly cloudy
Visibility: 10 miles , 16 km
Cloud details: Few Clouds 3000 ft
Partly cloudy 10000 ft
Mostly cloudy 25000 ft
2017/03/23 15:51 KPHX 231551Z 15009KT 10SM FEW030 SCT100 BKN250 14/08 A2995 RMK AO2 SLP132 T01390083
KSDL - Scottsdale, Arizona, USA
Distance from station: E 23mi, 37km
Updated: Thu, 23-Mar-2017 8:53am MST
Overcast
Overcast
 Wind from SSE
Wind: SSE 9 mph , 15 km/h
Temperature: 55°F , 13°C
Dew Point: 48°F , 9°C
Humidity: 77%
Barometer: 29.97 inHg , 1014.9 hPa
Clouds: Overcast
Visibility: 10 miles , 16 km
Cloud details: Few Clouds 2100 ft
Mostly cloudy 3200 ft
Overcast 4000 ft
2017/03/23 15:53 KSDL 231553Z 15008KT 10SM FEW021 BKN032 OVC040 13/09 A2997 RMK AO2 SLP135 T01330089
 
KBXK - Buckeye, Arizona, USA
Distance from station: WSW 24mi, 39km
Updated: Thu, 23-Mar-2017 9:15am MST
Clear
Clear
 Wind from SSW
Wind: SSW 7 mph , 11 km/h
Temperature: 57°F , 14°C
Dew Point: 48°F , 9°C
Humidity: 72%
Barometer: 29.97 inHg , 1014.9 hPa
Clouds: Clear
Visibility: 10 miles , 16 km
2017/03/23 16:15 KBXK 231615Z AUTO 21006KT 10SM CLR 14/09 A2997 RMK AO1
KFFZ - Mesa/Falcon Fld, Arizona, USA
Distance from station: E 35mi, 56km
Updated: Thu, 23-Mar-2017 8:55am MST

 Wind from SE
Wind: SE 12 mph , 19 km/h
Visibility: 40 miles , 64 km
2017/03/23 15:55 KFFZ 231555Z 14010KT 40SM BKN 050 SCT100 A2994
 
KIWA - Chandler/Mesa, Arizona, USA
Distance from station: ESE 42mi, 68km
Updated: Thu, 23-Mar-2017 8:48am MST
Mostly cloudy
Mostly cloudy
 Wind from SSE
Wind: SSE 10 mph , 17 km/h
Temperature: 54°F , 12°C
Dew Point: 48°F , 9°C
Humidity: 82%
Barometer: 29.99 inHg , 1015.6 hPa
Clouds: Mostly cloudy
Visibility: 20 miles , 32 km
Cloud details: Few Clouds 1500 ft
Partly cloudy 4000 ft
Mostly cloudy 5500 ft
Mostly cloudy 10000 ft
2017/03/23 15:48 KIWA 231548Z 15009KT 20SM FEW015 SCT040 BKN055 BKN100 12/09 A2999
KCGZ - Casa Granda, Arizona, USA
Distance from station: SE 53mi, 85km
Updated: Wed, 15-Feb-2017 1:56am MST
NOT Current
Clear
Clear
 Wind from ENE
Wind: ENE 17 mph , 28 km/h
Temperature: 61°F , 16°C
Dew Point: 37°F , 3°C
Humidity: 42%
Barometer: 30.07 inHg , 1018.3 hPa
Clouds: Clear
Visibility: 10 miles , 16 km
2017/02/15 08:56 KCGZ 150856Z AUTO 06015KT 10SM CLR 16/03 A3007 RMK AO2 SLP176 T01610033 50001 $
 
KGXF - Gila Bend (aaf), Arizona, USA
Distance from station: SSW 54mi, 87km
Updated: Thu, 23-Mar-2017 8:58am MST
Clear
Clear
 Wind from SW
Wind: SW 15 mph , 24 km/h
Temperature: 59°F , 15°C
Dew Point: 43°F , 6°C
Humidity: 55%
Barometer: 29.97 inHg , 1014.9 hPa
Clouds: Clear
Visibility: 10 miles , 16 km
2017/03/23 15:58 KGXF 231558Z 22013KT 10SM CLR 15/06 A2997 RMK AO2A SLP143 T01500058
KPAN - Payson, Arizona, USA
Distance from station: NE 73mi, 117km
Updated: Thu, 23-Mar-2017 9:15am MST
Mostly cloudy
Mostly cloudy
 Wind from WSW
Wind: WSW 6 mph , 9 km/h
Temperature: 41°F , 5°C
Wind Chill: 37°F , 3°C
Dew Point: 37°F , 3°C
Humidity: 87%
Barometer: 29.97 inHg , 1014.9 hPa
Clouds: Mostly cloudy
Visibility: 10 miles , 16 km
Cloud details: Few Clouds 700 ft
Partly cloudy 1400 ft
Mostly cloudy 3900 ft
2017/03/23 16:15 KPAN 231615Z AUTO 25005KT 10SM FEW007 SCT014 BKN039 05/03 A2997 RMK AO2
 
KPRC - Prescott, Arizona, USA
Distance from station: N 75mi, 121km
Updated: Thu, 23-Mar-2017 8:53am MST
Mostly cloudy
Mostly cloudy
 Wind from SSW
Wind: SSW 12 mph , 19 km/h
Temperature: 41°F , 5°C
Wind Chill: 34°F , 1°C
Dew Point: 34°F , 1°C
Humidity: 76%
Barometer: 29.92 inHg , 1013.2 hPa
Clouds: Mostly cloudy
Visibility: 10 miles , 16 km
Cloud details: Few Clouds 3600 ft
Mostly cloudy 4600 ft
2017/03/23 15:53 KPRC 231553Z 21010KT 10SM FEW036 BKN046 05/01 A2992 RMK AO2 SLP107 T00500006
KSEZ - Sedona, Arizona, USA
Distance from station: NNE 93mi, 150km
Updated: Thu, 23-Mar-2017 9:15am MST
Overcast
Overcast
 Wind from S
Wind: S 5 mph , 7 km/h
Temperature: 41°F , 5°C
Wind Chill: 38°F , 3°C
Dew Point: 39°F , 4°C
Humidity: 93%
Barometer: 29.94 inHg , 1013.9 hPa
Clouds: Overcast
Visibility: 10 miles , 16 km
Cloud details: Overcast 1000 ft
2017/03/23 16:15 KSEZ 231615Z AUTO 18004KT 10SM OVC010 05/04 A2994 RMK AO2
 
KFLG - Flagstaff, Arizona, USA
Distance from station: NNE 114mi, 184km
Updated: Thu, 23-Mar-2017 9:17am MST
Overcast
Overcast
 Wind from WSW
Wind: WSW 8 mph , 13 km/h
Temperature: 32°F , 0°C
Wind Chill: 25°F , -4°C
Dew Point: 28°F , -2°C
Humidity: 87%
Barometer: 29.91 inHg , 1012.9 hPa
Clouds: Overcast
Visibility: 10 miles , 16 km
Cloud details: Few Clouds 800 ft
Mostly cloudy 1300 ft
Overcast 3500 ft
2017/03/23 16:17 KFLG 231617Z 24007KT 10SM FEW008 BKN013 OVC035 00/M02 A2991 RMK AO2 T00001022
KRYN - Tucson/Ryan Fld, Arizona, USA
Distance from station: SE 118mi, 190km
Updated: Thu, 23-Mar-2017 8:45am MST
Partly cloudy
Partly cloudy
 Wind from W
Wind: W 9 mph , 15 km/h
Temperature: 54°F , 12°C
Dew Point: 45°F , 7°C
Humidity: 72%
Barometer: 30.02 inHg , 1016.6 hPa
Clouds: Partly cloudy
Visibility: 10 miles , 16 km
Cloud details: Few Clouds 800 ft
Few Clouds 2900 ft
Partly cloudy 6000 ft
2017/03/23 15:45 KRYN 231545Z 27008KT 10SM FEW008 FEW029 SCT060 12/07 A3002
 
KTUS - Tucson, Arizona, USA
Distance from station: SE 127mi, 204km
Updated: Thu, 23-Mar-2017 8:53am MST
Overcast
Overcast
 Wind from calm
Wind: Calm
Temperature: 54°F , 12°C
Dew Point: 41°F , 5°C
Humidity: 63%
Barometer: 30.01 inHg , 1016.3 hPa
Clouds: Overcast
Visibility: 10 miles , 16 km
Cloud details: Partly cloudy 2800 ft
Mostly cloudy 3400 ft
Overcast 6000 ft
2017/03/23 15:53 KTUS 231553Z 00000KT 10SM SCT028 BKN034 OVC060 12/05 A3001 RMK AO2 SLP136 T01170050
KDMA - Davis/Tucson, Arizona, USA
Distance from station: SE 128mi, 206km
Updated: Thu, 23-Mar-2017 9:17am MST
Partly cloudy
Partly cloudy
 Wind from WNW
Wind: WNW 8 mph , 13 km/h
Temperature: 54°F , 12°C
Dew Point: 39°F , 4°C
Humidity: 58%
Barometer: 30.01 inHg , 1016.3 hPa
Clouds: Partly cloudy
Visibility: 10 miles , 16 km
Cloud details: Partly cloudy 3000 ft
2017/03/23 16:17 KDMA 231617Z AUTO 30007KT 10SM SCT030 12/04 A3001 RMK AO2 DZB05E17 $
 
KINW - Winslow, Arizona, USA
Distance from station: NE 136mi, 219km
Updated: Thu, 23-Mar-2017 9:13am MST
Overcast
Overcast
 Wind from calm
Wind: Calm
Temperature: 43°F , 6°C
Dew Point: 37°F , 3°C
Humidity: 81%
Barometer: 29.90 inHg , 1012.5 hPa
Clouds: Overcast
Visibility: 10 miles , 16 km
Cloud details: Partly cloudy 2000 ft
Mostly cloudy 3800 ft
Overcast 10000 ft
2017/03/23 16:13 KINW 231613Z AUTO 00000KT 10SM SCT020 BKN038 OVC100 06/03 A2990 RMK AO2 T00610033
KHII - Lake Havasu City, Arizona, USA
Distance from station: WNW 136mi, 220km
Updated: Thu, 23-Mar-2017 9:15am MST
Clear
Clear
 Wind from S
Wind: S 6 mph , 9 km/h
Temperature: 63°F , 17°C
Dew Point: 34°F , 1°C
Humidity: 34%
Barometer: 29.93 inHg , 1013.5 hPa
Clouds: Clear
Visibility: 10 miles , 16 km
2017/03/23 16:15 KHII 231615Z AUTO 18005KT 10SM CLR 17/01 A2993 RMK AO2